sensor_id;sensor_type;location;lat;lon;timestamp;temperature;humidity
4637;DHT22;2331;48.806;9.140;2023-06-22T00:01:13;25.20;1.00
4637;DHT22;2331;48.806;9.140;2023-06-22T00:03:40;25.20;1.00
4637;DHT22;2331;48.806;9.140;2023-06-22T00:06:07;25.20;1.00
4637;DHT22;2331;48.806;9.140;2023-06-22T00:08:33;25.20;1.00
4637;DHT22;2331;48.806;9.140;2023-06-22T00:11:00;25.10;1.00
4637;DHT22;2331;48.806;9.140;2023-06-22T00:13:27;25.20;1.00
4637;DHT22;2331;48.806;9.140;2023-06-22T00:15:55;25.10;1.00
4637;DHT22;2331;48.806;9.140;2023-06-22T00:18:21;25.10;1.00
4637;DHT22;2331;48.806;9.140;2023-06-22T00:20:54;25.00;1.00
4637;DHT22;2331;48.806;9.140;2023-06-22T00:23:23;25.10;1.00
4637;DHT22;2331;48.806;9.140;2023-06-22T00:25:50;25.00;1.00
4637;DHT22;2331;48.806;9.140;2023-06-22T00:28:17;25.00;1.00
4637;DHT22;2331;48.806;9.140;2023-06-22T00:30:44;25.10;1.00
4637;DHT22;2331;48.806;9.140;2023-06-22T00:33:12;25.00;1.00
4637;DHT22;2331;48.806;9.140;2023-06-22T00:35:39;25.00;1.00
4637;DHT22;2331;48.806;9.140;2023-06-22T00:38:06;25.00;1.00
4637;DHT22;2331;48.806;9.140;2023-06-22T00:40:34;25.00;1.00
4637;DHT22;2331;48.806;9.140;2023-06-22T00:43:00;25.00;1.00
4637;DHT22;2331;48.806;9.140;2023-06-22T00:45:27;25.00;1.00
4637;DHT22;2331;48.806;9.140;2023-06-22T00:47:56;24.90;1.00
4637;DHT22;2331;48.806;9.140;2023-06-22T00:50:26;24.90;1.00
4637;DHT22;2331;48.806;9.140;2023-06-22T00:52:55;24.80;1.00
4637;DHT22;2331;48.806;9.140;2023-06-22T00:55:24;24.80;1.00
4637;DHT22;2331;48.806;9.140;2023-06-22T00:57:52;24.80;1.00
4637;DHT22;2331;48.806;9.140;2023-06-22T01:00:22;24.70;1.00
4637;DHT22;2331;48.806;9.140;2023-06-22T01:02:50;24.60;1.00
4637;DHT22;2331;48.806;9.140;2023-06-22T01:05:17;24.60;1.00
4637;DHT22;2331;48.806;9.140;2023-06-22T01:07:56;24.60;1.00
4637;DHT22;2331;48.806;9.140;2023-06-22T01:10:28;24.50;1.00
4637;DHT22;2331;48.806;9.140;2023-06-22T01:13:02;24.40;1.00
4637;DHT22;2331;48.806;9.140;2023-06-22T01:15:33;24.40;1.00
4637;DHT22;2331;48.806;9.140;2023-06-22T01:18:04;24.40;1.00
4637;DHT22;2331;48.806;9.140;2023-06-22T01:20:33;24.40;1.00
4637;DHT22;2331;48.806;9.140;2023-06-22T01:23:09;24.30;1.00
4637;DHT22;2331;48.806;9.140;2023-06-22T01:25:45;24.30;1.00
4637;DHT22;2331;48.806;9.140;2023-06-22T01:30:55;24.40;1.00
4637;DHT22;2331;48.806;9.140;2023-06-22T01:33:29;24.40;1.00
4637;DHT22;2331;48.806;9.140;2023-06-22T01:35:57;24.30;1.00
4637;DHT22;2331;48.806;9.140;2023-06-22T01:38:25;24.20;1.00
4637;DHT22;2331;48.806;9.140;2023-06-22T01:40:53;24.20;1.00
4637;DHT22;2331;48.806;9.140;2023-06-22T01:43:21;24.20;1.00
4637;DHT22;2331;48.806;9.140;2023-06-22T01:45:49;24.10;1.00
4637;DHT22;2331;48.806;9.140;2023-06-22T01:48:18;24.10;1.00
4637;DHT22;2331;48.806;9.140;2023-06-22T01:50:45;24.10;1.00
4637;DHT22;2331;48.806;9.140;2023-06-22T01:53:12;24.10;1.00
4637;DHT22;2331;48.806;9.140;2023-06-22T01:55:39;24.10;1.00
4637;DHT22;2331;48.806;9.140;2023-06-22T01:58:06;24.10;1.00
4637;DHT22;2331;48.806;9.140;2023-06-22T02:00:36;24.10;1.00
4637;DHT22;2331;48.806;9.140;2023-06-22T02:03:08;24.10;1.00
4637;DHT22;2331;48.806;9.140;2023-06-22T02:05:41;24.10;1.00
4637;DHT22;2331;48.806;9.140;2023-06-22T02:08:11;24.00;1.00
4637;DHT22;2331;48.806;9.140;2023-06-22T02:10:42;24.00;1.00
4637;DHT22;2331;48.806;9.140;2023-06-22T02:13:11;24.00;1.00
4637;DHT22;2331;48.806;9.140;2023-06-22T02:15:38;24.00;1.00
4637;DHT22;2331;48.806;9.140;2023-06-22T02:18:05;23.90;1.00
4637;DHT22;2331;48.806;9.140;2023-06-22T02:20:32;23.90;1.00
4637;DHT22;2331;48.806;9.140;2023-06-22T02:23:00;23.90;1.00
4637;DHT22;2331;48.806;9.140;2023-06-22T02:25:27;23.90;1.00
4637;DHT22;2331;48.806;9.140;2023-06-22T02:27:54;23.80;1.00
4637;DHT22;2331;48.806;9.140;2023-06-22T02:30:20;23.80;1.00
4637;DHT22;2331;48.806;9.140;2023-06-22T02:32:47;23.70;1.00
4637;DHT22;2331;48.806;9.140;2023-06-22T02:35:14;23.70;1.00
4637;DHT22;2331;48.806;9.140;2023-06-22T02:37:40;23.70;1.00
4637;DHT22;2331;48.806;9.140;2023-06-22T02:40:09;23.60;1.00
4637;DHT22;2331;48.806;9.140;2023-06-22T02:42:36;23.60;1.00
4637;DHT22;2331;48.806;9.140;2023-06-22T02:45:04;23.60;1.00
4637;DHT22;2331;48.806;9.140;2023-06-22T02:47:30;23.60;1.00
4637;DHT22;2331;48.806;9.140;2023-06-22T02:49:57;23.50;1.00
4637;DHT22;2331;48.806;9.140;2023-06-22T02:52:24;23.60;1.00
4637;DHT22;2331;48.806;9.140;2023-06-22T02:54:50;23.50;1.00
4637;DHT22;2331;48.806;9.140;2023-06-22T02:57:19;23.50;1.00
4637;DHT22;2331;48.806;9.140;2023-06-22T02:59:49;23.50;1.00
4637;DHT22;2331;48.806;9.140;2023-06-22T03:02:15;23.50;1.00
4637;DHT22;2331;48.806;9.140;2023-06-22T03:04:44;23.50;1.00
4637;DHT22;2331;48.806;9.140;2023-06-22T03:07:14;23.50;1.00
4637;DHT22;2331;48.806;9.140;2023-06-22T03:09:42;23.50;1.00
4637;DHT22;2331;48.806;9.140;2023-06-22T03:12:09;23.40;1.00
4637;DHT22;2331;48.806;9.140;2023-06-22T03:14:37;23.40;1.00
4637;DHT22;2331;48.806;9.140;2023-06-22T03:17:05;23.40;1.00
4637;DHT22;2331;48.806;9.140;2023-06-22T03:19:33;23.40;1.00
4637;DHT22;2331;48.806;9.140;2023-06-22T03:22:00;23.30;1.00
4637;DHT22;2331;48.806;9.140;2023-06-22T03:24:27;23.20;1.00
4637;DHT22;2331;48.806;9.140;2023-06-22T03:26:55;23.30;1.00
4637;DHT22;2331;48.806;9.140;2023-06-22T03:29:22;23.30;1.00
4637;DHT22;2331;48.806;9.140;2023-06-22T03:31:50;23.30;1.00
4637;DHT22;2331;48.806;9.140;2023-06-22T03:34:17;23.30;1.00
4637;DHT22;2331;48.806;9.140;2023-06-22T03:36:44;23.20;1.00
4637;DHT22;2331;48.806;9.140;2023-06-22T03:39:11;23.30;1.00
4637;DHT22;2331;48.806;9.140;2023-06-22T03:41:38;23.30;1.00
4637;DHT22;2331;48.806;9.140;2023-06-22T03:44:05;23.20;1.00
4637;DHT22;2331;48.806;9.140;2023-06-22T03:46:31;23.30;1.00
4637;DHT22;2331;48.806;9.140;2023-06-22T03:48:59;23.20;1.00
4637;DHT22;2331;48.806;9.140;2023-06-22T03:51:28;23.20;1.00
4637;DHT22;2331;48.806;9.140;2023-06-22T03:53:55;23.20;1.00
4637;DHT22;2331;48.806;9.140;2023-06-22T03:56:22;23.10;1.00
4637;DHT22;2331;48.806;9.140;2023-06-22T03:58:48;23.10;1.00
4637;DHT22;2331;48.806;9.140;2023-06-22T04:01:16;23.10;1.00
4637;DHT22;2331;48.806;9.140;2023-06-22T04:03:43;23.10;1.00
4637;DHT22;2331;48.806;9.140;2023-06-22T04:06:11;23.10;1.00
4637;DHT22;2331;48.806;9.140;2023-06-22T04:08:38;23.00;1.00
4637;DHT22;2331;48.806;9.140;2023-06-22T04:11:04;23.10;1.00
4637;DHT22;2331;48.806;9.140;2023-06-22T04:13:31;23.10;1.00
4637;DHT22;2331;48.806;9.140;2023-06-22T04:15:58;23.10;1.00
4637;DHT22;2331;48.806;9.140;2023-06-22T04:18:26;23.00;1.00
4637;DHT22;2331;48.806;9.140;2023-06-22T04:20:53;23.10;1.00
4637;DHT22;2331;48.806;9.140;2023-06-22T04:23:21;23.10;1.00
4637;DHT22;2331;48.806;9.140;2023-06-22T04:25:47;23.10;1.00
4637;DHT22;2331;48.806;9.140;2023-06-22T04:28:14;23.10;1.00
4637;DHT22;2331;48.806;9.140;2023-06-22T04:30:41;23.10;1.00
4637;DHT22;2331;48.806;9.140;2023-06-22T04:33:12;23.10;1.00
4637;DHT22;2331;48.806;9.140;2023-06-22T04:35:39;23.10;1.00
4637;DHT22;2331;48.806;9.140;2023-06-22T04:38:06;23.10;1.00
4637;DHT22;2331;48.806;9.140;2023-06-22T04:40:35;23.10;1.00
4637;DHT22;2331;48.806;9.140;2023-06-22T04:43:01;23.20;1.00
4637;DHT22;2331;48.806;9.140;2023-06-22T04:45:29;23.10;1.00
4637;DHT22;2331;48.806;9.140;2023-06-22T04:47:55;23.20;1.00
4637;DHT22;2331;48.806;9.140;2023-06-22T04:50:22;23.20;1.00
4637;DHT22;2331;48.806;9.140;2023-06-22T04:52:49;23.20;1.00
4637;DHT22;2331;48.806;9.140;2023-06-22T04:55:16;23.20;1.00
4637;DHT22;2331;48.806;9.140;2023-06-22T04:57:48;23.30;1.00
4637;DHT22;2331;48.806;9.140;2023-06-22T05:00:16;23.30;1.00
4637;DHT22;2331;48.806;9.140;2023-06-22T05:02:44;23.30;1.00
4637;DHT22;2331;48.806;9.140;2023-06-22T05:05:11;23.30;1.00
4637;DHT22;2331;48.806;9.140;2023-06-22T05:07:40;23.30;1.00
4637;DHT22;2331;48.806;9.140;2023-06-22T05:10:09;23.40;1.00
4637;DHT22;2331;48.806;9.140;2023-06-22T05:12:36;23.40;1.00
4637;DHT22;2331;48.806;9.140;2023-06-22T05:15:05;23.40;1.00
4637;DHT22;2331;48.806;9.140;2023-06-22T05:17:32;23.50;1.00
4637;DHT22;2331;48.806;9.140;2023-06-22T05:19:59;23.50;1.00
4637;DHT22;2331;48.806;9.140;2023-06-22T05:22:29;23.60;1.00
4637;DHT22;2331;48.806;9.140;2023-06-22T05:24:55;23.60;1.00
4637;DHT22;2331;48.806;9.140;2023-06-22T05:27:22;23.60;1.00
4637;DHT22;2331;48.806;9.140;2023-06-22T05:29:49;23.70;1.00
4637;DHT22;2331;48.806;9.140;2023-06-22T05:32:17;23.70;1.00
4637;DHT22;2331;48.806;9.140;2023-06-22T05:34:44;23.80;1.00
4637;DHT22;2331;48.806;9.140;2023-06-22T05:37:10;23.80;1.00
4637;DHT22;2331;48.806;9.140;2023-06-22T05:39:38;23.80;1.00
4637;DHT22;2331;48.806;9.140;2023-06-22T05:42:05;23.90;1.00
4637;DHT22;2331;48.806;9.140;2023-06-22T05:44:32;23.90;1.00
4637;DHT22;2331;48.806;9.140;2023-06-22T05:46:59;23.90;1.00
4637;DHT22;2331;48.806;9.140;2023-06-22T05:49:27;23.90;1.00
4637;DHT22;2331;48.806;9.140;2023-06-22T05:51:58;23.90;1.00
4637;DHT22;2331;48.806;9.140;2023-06-22T05:54:24;24.00;1.00
4637;DHT22;2331;48.806;9.140;2023-06-22T05:56:51;24.00;1.00
4637;DHT22;2331;48.806;9.140;2023-06-22T05:59:18;24.00;1.00
4637;DHT22;2331;48.806;9.140;2023-06-22T06:01:44;24.00;1.00
4637;DHT22;2331;48.806;9.140;2023-06-22T06:04:15;24.10;1.00
4637;DHT22;2331;48.806;9.140;2023-06-22T06:06:43;24.10;1.00
4637;DHT22;2331;48.806;9.140;2023-06-22T06:09:10;24.10;1.00
4637;DHT22;2331;48.806;9.140;2023-06-22T06:11:37;24.10;1.00
4637;DHT22;2331;48.806;9.140;2023-06-22T06:14:04;24.10;1.00
4637;DHT22;2331;48.806;9.140;2023-06-22T06:16:31;24.20;1.00
4637;DHT22;2331;48.806;9.140;2023-06-22T06:18:58;24.20;1.00
4637;DHT22;2331;48.806;9.140;2023-06-22T06:21:25;24.30;1.00
4637;DHT22;2331;48.806;9.140;2023-06-22T06:23:53;24.30;1.00
4637;DHT22;2331;48.806;9.140;2023-06-22T06:26:19;24.40;1.00
4637;DHT22;2331;48.806;9.140;2023-06-22T06:28:55;24.40;1.00
4637;DHT22;2331;48.806;9.140;2023-06-22T06:31:22;24.40;1.00
4637;DHT22;2331;48.806;9.140;2023-06-22T06:33:49;24.50;1.00
4637;DHT22;2331;48.806;9.140;2023-06-22T06:36:17;24.50;1.00
4637;DHT22;2331;48.806;9.140;2023-06-22T06:38:43;24.50;1.00
4637;DHT22;2331;48.806;9.140;2023-06-22T06:41:13;24.60;1.00
4637;DHT22;2331;48.806;9.140;2023-06-22T06:43:40;24.70;1.00
4637;DHT22;2331;48.806;9.140;2023-06-22T06:46:08;24.70;1.00
4637;DHT22;2331;48.806;9.140;2023-06-22T06:48:35;24.80;1.00
4637;DHT22;2331;48.806;9.140;2023-06-22T06:51:02;24.80;1.00
4637;DHT22;2331;48.806;9.140;2023-06-22T06:53:28;24.80;1.00
4637;DHT22;2331;48.806;9.140;2023-06-22T06:55:55;24.80;1.00
4637;DHT22;2331;48.806;9.140;2023-06-22T06:58:23;24.90;1.00
4637;DHT22;2331;48.806;9.140;2023-06-22T07:00:50;24.90;1.00
4637;DHT22;2331;48.806;9.140;2023-06-22T07:03:16;25.00;1.00
4637;DHT22;2331;48.806;9.140;2023-06-22T07:05:43;25.00;1.00
4637;DHT22;2331;48.806;9.140;2023-06-22T07:08:10;25.00;1.00
4637;DHT22;2331;48.806;9.140;2023-06-22T07:10:36;25.10;1.00
4637;DHT22;2331;48.806;9.140;2023-06-22T07:13:03;25.20;1.00
4637;DHT22;2331;48.806;9.140;2023-06-22T07:15:31;25.20;1.00
4637;DHT22;2331;48.806;9.140;2023-06-22T07:17:58;25.20;1.00
4637;DHT22;2331;48.806;9.140;2023-06-22T07:20:24;25.30;1.00
4637;DHT22;2331;48.806;9.140;2023-06-22T07:22:51;25.40;1.00
4637;DHT22;2331;48.806;9.140;2023-06-22T07:25:18;25.40;1.00
4637;DHT22;2331;48.806;9.140;2023-06-22T07:27:46;25.50;1.00
4637;DHT22;2331;48.806;9.140;2023-06-22T07:30:13;25.50;1.00
4637;DHT22;2331;48.806;9.140;2023-06-22T07:32:41;25.60;1.00
4637;DHT22;2331;48.806;9.140;2023-06-22T07:35:08;25.70;1.00
4637;DHT22;2331;48.806;9.140;2023-06-22T07:37:36;25.70;1.00
4637;DHT22;2331;48.806;9.140;2023-06-22T07:40:03;25.80;1.00
4637;DHT22;2331;48.806;9.140;2023-06-22T07:42:32;25.90;1.00
4637;DHT22;2331;48.806;9.140;2023-06-22T07:44:59;25.90;1.00
4637;DHT22;2331;48.806;9.140;2023-06-22T07:47:25;26.00;1.00
4637;DHT22;2331;48.806;9.140;2023-06-22T07:49:55;26.00;1.00
4637;DHT22;2331;48.806;9.140;2023-06-22T07:52:23;26.10;1.00
4637;DHT22;2331;48.806;9.140;2023-06-22T07:54:50;26.20;1.00
4637;DHT22;2331;48.806;9.140;2023-06-22T07:57:17;26.30;1.00
4637;DHT22;2331;48.806;9.140;2023-06-22T07:59:44;26.40;1.00
4637;DHT22;2331;48.806;9.140;2023-06-22T08:02:10;26.50;1.00
4637;DHT22;2331;48.806;9.140;2023-06-22T08:04:37;26.50;1.00
4637;DHT22;2331;48.806;9.140;2023-06-22T08:07:05;26.60;1.00
4637;DHT22;2331;48.806;9.140;2023-06-22T08:09:32;26.60;1.00
4637;DHT22;2331;48.806;9.140;2023-06-22T08:11:59;26.70;1.00
4637;DHT22;2331;48.806;9.140;2023-06-22T08:14:26;26.70;1.00
4637;DHT22;2331;48.806;9.140;2023-06-22T08:16:53;26.80;1.00
4637;DHT22;2331;48.806;9.140;2023-06-22T08:19:20;26.90;1.00
4637;DHT22;2331;48.806;9.140;2023-06-22T08:21:47;27.00;1.00
4637;DHT22;2331;48.806;9.140;2023-06-22T08:24:15;27.10;1.00
4637;DHT22;2331;48.806;9.140;2023-06-22T08:26:41;27.20;1.00
4637;DHT22;2331;48.806;9.140;2023-06-22T08:29:08;27.30;1.00
4637;DHT22;2331;48.806;9.140;2023-06-22T08:31:36;27.40;1.00
4637;DHT22;2331;48.806;9.140;2023-06-22T08:34:02;27.40;1.00
4637;DHT22;2331;48.806;9.140;2023-06-22T08:36:29;27.50;1.00
4637;DHT22;2331;48.806;9.140;2023-06-22T08:38:58;27.60;1.00
4637;DHT22;2331;48.806;9.140;2023-06-22T08:41:28;27.60;1.00
4637;DHT22;2331;48.806;9.140;2023-06-22T08:43:54;27.80;1.00
4637;DHT22;2331;48.806;9.140;2023-06-22T08:46:21;27.80;1.00
4637;DHT22;2331;48.806;9.140;2023-06-22T08:48:55;27.90;1.00
4637;DHT22;2331;48.806;9.140;2023-06-22T08:51:23;28.00;1.00
4637;DHT22;2331;48.806;9.140;2023-06-22T08:53:49;28.10;1.00
4637;DHT22;2331;48.806;9.140;2023-06-22T08:56:16;28.30;1.00
4637;DHT22;2331;48.806;9.140;2023-06-22T08:58:44;28.40;1.00
4637;DHT22;2331;48.806;9.140;2023-06-22T09:01:11;28.50;1.00
4637;DHT22;2331;48.806;9.140;2023-06-22T09:03:38;28.60;1.00
4637;DHT22;2331;48.806;9.140;2023-06-22T09:06:04;28.70;1.00
4637;DHT22;2331;48.806;9.140;2023-06-22T09:08:32;28.80;1.00
4637;DHT22;2331;48.806;9.140;2023-06-22T09:11:02;28.90;1.00
4637;DHT22;2331;48.806;9.140;2023-06-22T09:13:30;29.00;1.00
4637;DHT22;2331;48.806;9.140;2023-06-22T09:15:58;29.10;1.00
4637;DHT22;2331;48.806;9.140;2023-06-22T09:18:25;29.20;1.00
4637;DHT22;2331;48.806;9.140;2023-06-22T09:20:51;29.20;1.00
4637;DHT22;2331;48.806;9.140;2023-06-22T09:23:18;29.20;1.00
4637;DHT22;2331;48.806;9.140;2023-06-22T09:25:45;29.30;1.00
4637;DHT22;2331;48.806;9.140;2023-06-22T09:28:13;29.30;1.00
4637;DHT22;2331;48.806;9.140;2023-06-22T09:30:43;29.40;1.00
4637;DHT22;2331;48.806;9.140;2023-06-22T09:33:11;29.50;1.00
4637;DHT22;2331;48.806;9.140;2023-06-22T09:35:37;29.70;1.00
4637;DHT22;2331;48.806;9.140;2023-06-22T09:38:04;29.80;1.00
4637;DHT22;2331;48.806;9.140;2023-06-22T09:40:31;30.00;1.00
4637;DHT22;2331;48.806;9.140;2023-06-22T09:43:00;30.10;1.00
4637;DHT22;2331;48.806;9.140;2023-06-22T09:45:27;30.30;1.00
4637;DHT22;2331;48.806;9.140;2023-06-22T09:47:54;30.30;1.00
4637;DHT22;2331;48.806;9.140;2023-06-22T09:50:22;30.40;1.00
4637;DHT22;2331;48.806;9.140;2023-06-22T09:52:49;30.50;1.00
4637;DHT22;2331;48.806;9.140;2023-06-22T09:55:21;30.60;1.00
4637;DHT22;2331;48.806;9.140;2023-06-22T09:57:48;30.80;1.00
4637;DHT22;2331;48.806;9.140;2023-06-22T10:00:16;30.90;1.00
4637;DHT22;2331;48.806;9.140;2023-06-22T10:02:44;31.00;1.00
4637;DHT22;2331;48.806;9.140;2023-06-22T10:05:11;31.10;1.00
4637;DHT22;2331;48.806;9.140;2023-06-22T10:07:39;31.20;1.00
4637;DHT22;2331;48.806;9.140;2023-06-22T10:10:09;31.30;1.00
4637;DHT22;2331;48.806;9.140;2023-06-22T10:12:35;31.40;1.00
4637;DHT22;2331;48.806;9.140;2023-06-22T10:15:03;31.40;1.00
4637;DHT22;2331;48.806;9.140;2023-06-22T10:17:29;31.40;1.00
4637;DHT22;2331;48.806;9.140;2023-06-22T10:19:56;31.50;1.00
4637;DHT22;2331;48.806;9.140;2023-06-22T10:22:23;31.50;1.00
4637;DHT22;2331;48.806;9.140;2023-06-22T10:24:51;31.70;1.00
4637;DHT22;2331;48.806;9.140;2023-06-22T10:27:17;31.70;1.00
4637;DHT22;2331;48.806;9.140;2023-06-22T10:29:44;31.80;1.00
4637;DHT22;2331;48.806;9.140;2023-06-22T10:32:11;31.90;1.00
4637;DHT22;2331;48.806;9.140;2023-06-22T10:34:37;32.10;1.00
4637;DHT22;2331;48.806;9.140;2023-06-22T10:37:05;32.10;1.00
4637;DHT22;2331;48.806;9.140;2023-06-22T10:39:31;32.30;1.00
4637;DHT22;2331;48.806;9.140;2023-06-22T10:42:00;32.30;1.00
4637;DHT22;2331;48.806;9.140;2023-06-22T10:44:27;32.40;1.00
4637;DHT22;2331;48.806;9.140;2023-06-22T10:46:53;32.40;1.00
4637;DHT22;2331;48.806;9.140;2023-06-22T10:49:20;32.40;1.00
4637;DHT22;2331;48.806;9.140;2023-06-22T10:51:46;32.50;1.00
4637;DHT22;2331;48.806;9.140;2023-06-22T10:54:13;32.60;1.00
4637;DHT22;2331;48.806;9.140;2023-06-22T10:56:42;32.70;1.00
4637;DHT22;2331;48.806;9.140;2023-06-22T10:59:10;32.80;1.00
4637;DHT22;2331;48.806;9.140;2023-06-22T11:01:37;32.90;1.00
4637;DHT22;2331;48.806;9.140;2023-06-22T11:04:04;32.80;1.00
4637;DHT22;2331;48.806;9.140;2023-06-22T11:06:30;32.90;1.00
4637;DHT22;2331;48.806;9.140;2023-06-22T11:08:57;33.00;1.00
4637;DHT22;2331;48.806;9.140;2023-06-22T11:11:25;33.00;1.00
4637;DHT22;2331;48.806;9.140;2023-06-22T11:13:52;33.00;1.00
4637;DHT22;2331;48.806;9.140;2023-06-22T11:16:20;33.00;1.00
4637;DHT22;2331;48.806;9.140;2023-06-22T11:18:47;33.10;1.00
4637;DHT22;2331;48.806;9.140;2023-06-22T11:21:13;33.10;1.00
4637;DHT22;2331;48.806;9.140;2023-06-22T11:23:42;33.20;1.00
4637;DHT22;2331;48.806;9.140;2023-06-22T11:26:08;33.20;1.00
4637;DHT22;2331;48.806;9.140;2023-06-22T11:28:35;33.30;1.00
4637;DHT22;2331;48.806;9.140;2023-06-22T11:31:02;33.30;1.00
4637;DHT22;2331;48.806;9.140;2023-06-22T11:33:30;33.30;1.00
4637;DHT22;2331;48.806;9.140;2023-06-22T11:35:57;33.30;1.00
4637;DHT22;2331;48.806;9.140;2023-06-22T11:38:23;33.30;1.00
4637;DHT22;2331;48.806;9.140;2023-06-22T11:40:50;33.30;1.00
4637;DHT22;2331;48.806;9.140;2023-06-22T11:43:17;33.30;1.00
4637;DHT22;2331;48.806;9.140;2023-06-22T11:45:43;33.30;1.00
4637;DHT22;2331;48.806;9.140;2023-06-22T11:48:10;33.40;1.00
4637;DHT22;2331;48.806;9.140;2023-06-22T11:50:38;33.40;1.00
4637;DHT22;2331;48.806;9.140;2023-06-22T11:53:05;33.40;1.00
4637;DHT22;2331;48.806;9.140;2023-06-22T11:55:31;33.40;1.00
4637;DHT22;2331;48.806;9.140;2023-06-22T11:57:58;33.40;1.00
4637;DHT22;2331;48.806;9.140;2023-06-22T12:00:28;33.40;1.00
4637;DHT22;2331;48.806;9.140;2023-06-22T12:02:55;33.40;1.00
4637;DHT22;2331;48.806;9.140;2023-06-22T12:05:22;33.40;1.00
4637;DHT22;2331;48.806;9.140;2023-06-22T12:07:53;33.50;1.00
4637;DHT22;2331;48.806;9.140;2023-06-22T12:10:20;33.40;1.00
4637;DHT22;2331;48.806;9.140;2023-06-22T12:12:47;33.40;1.00
4637;DHT22;2331;48.806;9.140;2023-06-22T12:15:14;33.40;1.00
4637;DHT22;2331;48.806;9.140;2023-06-22T12:17:40;33.40;1.00
4637;DHT22;2331;48.806;9.140;2023-06-22T12:20:08;33.50;1.00
4637;DHT22;2331;48.806;9.140;2023-06-22T12:22:35;33.50;1.00
4637;DHT22;2331;48.806;9.140;2023-06-22T12:25:05;33.40;1.00
4637;DHT22;2331;48.806;9.140;2023-06-22T12:27:32;33.40;1.00
4637;DHT22;2331;48.806;9.140;2023-06-22T12:29:59;33.40;1.00
4637;DHT22;2331;48.806;9.140;2023-06-22T12:32:25;33.40;1.00
4637;DHT22;2331;48.806;9.140;2023-06-22T12:34:52;33.30;1.00
4637;DHT22;2331;48.806;9.140;2023-06-22T12:37:19;33.20;1.00
4637;DHT22;2331;48.806;9.140;2023-06-22T12:39:46;33.20;1.00
4637;DHT22;2331;48.806;9.140;2023-06-22T12:42:14;33.30;1.00
4637;DHT22;2331;48.806;9.140;2023-06-22T12:44:41;33.40;1.00
4637;DHT22;2331;48.806;9.140;2023-06-22T12:47:08;33.30;1.00
4637;DHT22;2331;48.806;9.140;2023-06-22T12:49:35;33.30;1.00
4637;DHT22;2331;48.806;9.140;2023-06-22T12:52:02;33.30;1.00
4637;DHT22;2331;48.806;9.140;2023-06-22T12:54:29;33.30;1.00
4637;DHT22;2331;48.806;9.140;2023-06-22T12:56:56;33.30;1.00
4637;DHT22;2331;48.806;9.140;2023-06-22T12:59:24;33.30;1.00
4637;DHT22;2331;48.806;9.140;2023-06-22T13:01:51;33.30;1.00
4637;DHT22;2331;48.806;9.140;2023-06-22T13:04:17;33.30;1.00
4637;DHT22;2331;48.806;9.140;2023-06-22T13:06:45;33.30;1.00
4637;DHT22;2331;48.806;9.140;2023-06-22T13:09:13;33.30;1.00
4637;DHT22;2331;48.806;9.140;2023-06-22T13:11:40;33.40;1.00
4637;DHT22;2331;48.806;9.140;2023-06-22T13:14:07;33.40;1.00
4637;DHT22;2331;48.806;9.140;2023-06-22T13:16:35;33.40;1.00
4637;DHT22;2331;48.806;9.140;2023-06-22T13:19:02;33.30;1.00
4637;DHT22;2331;48.806;9.140;2023-06-22T13:21:30;33.20;1.00
4637;DHT22;2331;48.806;9.140;2023-06-22T13:23:57;33.30;1.00
4637;DHT22;2331;48.806;9.140;2023-06-22T13:26:24;33.20;1.00
4637;DHT22;2331;48.806;9.140;2023-06-22T13:28:50;33.30;1.00
4637;DHT22;2331;48.806;9.140;2023-06-22T13:31:17;33.40;1.00
4637;DHT22;2331;48.806;9.140;2023-06-22T13:33:45;33.30;1.00
4637;DHT22;2331;48.806;9.140;2023-06-22T13:36:13;33.30;1.00
4637;DHT22;2331;48.806;9.140;2023-06-22T13:38:40;33.40;1.00
4637;DHT22;2331;48.806;9.140;2023-06-22T13:41:06;33.40;1.00
4637;DHT22;2331;48.806;9.140;2023-06-22T13:43:33;33.40;1.00
4637;DHT22;2331;48.806;9.140;2023-06-22T13:46:00;33.50;1.00
4637;DHT22;2331;48.806;9.140;2023-06-22T13:48:26;33.50;1.00
4637;DHT22;2331;48.806;9.140;2023-06-22T13:50:55;33.50;1.00
4637;DHT22;2331;48.806;9.140;2023-06-22T13:53:24;33.60;1.00
4637;DHT22;2331;48.806;9.140;2023-06-22T13:55:50;33.50;1.00
4637;DHT22;2331;48.806;9.140;2023-06-22T13:58:17;33.60;1.00
4637;DHT22;2331;48.806;9.140;2023-06-22T14:00:45;33.60;1.00
4637;DHT22;2331;48.806;9.140;2023-06-22T14:03:13;33.60;1.00
4637;DHT22;2331;48.806;9.140;2023-06-22T14:05:41;33.50;1.00
4637;DHT22;2331;48.806;9.140;2023-06-22T14:08:09;33.40;1.00
4637;DHT22;2331;48.806;9.140;2023-06-22T14:10:36;33.50;1.00
4637;DHT22;2331;48.806;9.140;2023-06-22T14:13:02;33.40;1.00
4637;DHT22;2331;48.806;9.140;2023-06-22T14:15:31;33.40;1.00
4637;DHT22;2331;48.806;9.140;2023-06-22T14:17:57;33.40;1.00
4637;DHT22;2331;48.806;9.140;2023-06-22T14:20:24;33.40;1.00
4637;DHT22;2331;48.806;9.140;2023-06-22T14:22:51;33.50;1.00
4637;DHT22;2331;48.806;9.140;2023-06-22T14:25:19;33.50;1.00
4637;DHT22;2331;48.806;9.140;2023-06-22T14:27:45;33.70;1.00
4637;DHT22;2331;48.806;9.140;2023-06-22T14:30:12;33.80;1.00
4637;DHT22;2331;48.806;9.140;2023-06-22T14:32:39;33.90;1.00
4637;DHT22;2331;48.806;9.140;2023-06-22T14:35:06;34.00;1.00
4637;DHT22;2331;48.806;9.140;2023-06-22T14:37:33;34.00;1.00
4637;DHT22;2331;48.806;9.140;2023-06-22T14:39:59;33.90;1.00
4637;DHT22;2331;48.806;9.140;2023-06-22T14:42:27;33.90;1.00
4637;DHT22;2331;48.806;9.140;2023-06-22T14:44:55;33.90;1.00
4637;DHT22;2331;48.806;9.140;2023-06-22T14:47:22;33.90;1.00
4637;DHT22;2331;48.806;9.140;2023-06-22T14:49:48;34.00;1.00
4637;DHT22;2331;48.806;9.140;2023-06-22T14:52:15;34.20;1.00
4637;DHT22;2331;48.806;9.140;2023-06-22T14:54:42;34.20;1.00
4637;DHT22;2331;48.806;9.140;2023-06-22T14:57:08;34.40;1.00
4637;DHT22;2331;48.806;9.140;2023-06-22T14:59:36;34.50;1.00
4637;DHT22;2331;48.806;9.140;2023-06-22T15:02:03;34.50;1.00
4637;DHT22;2331;48.806;9.140;2023-06-22T15:04:30;34.60;1.00
4637;DHT22;2331;48.806;9.140;2023-06-22T15:07:00;34.60;1.00
4637;DHT22;2331;48.806;9.140;2023-06-22T15:09:27;34.50;1.00
4637;DHT22;2331;48.806;9.140;2023-06-22T15:11:53;34.60;1.00
4637;DHT22;2331;48.806;9.140;2023-06-22T15:14:20;34.50;1.00
4637;DHT22;2331;48.806;9.140;2023-06-22T15:16:48;34.50;1.00
4637;DHT22;2331;48.806;9.140;2023-06-22T15:19:14;34.50;1.00
4637;DHT22;2331;48.806;9.140;2023-06-22T15:21:41;34.60;1.00
4637;DHT22;2331;48.806;9.140;2023-06-22T15:24:08;34.70;1.00
4637;DHT22;2331;48.806;9.140;2023-06-22T15:26:34;34.70;1.00
4637;DHT22;2331;48.806;9.140;2023-06-22T15:29:01;34.80;1.00
4637;DHT22;2331;48.806;9.140;2023-06-22T15:31:28;34.90;1.00
4637;DHT22;2331;48.806;9.140;2023-06-22T15:33:56;35.00;1.00
4637;DHT22;2331;48.806;9.140;2023-06-22T15:36:23;35.00;1.00
4637;DHT22;2331;48.806;9.140;2023-06-22T15:38:49;35.00;1.00
4637;DHT22;2331;48.806;9.140;2023-06-22T15:41:16;35.20;1.00
4637;DHT22;2331;48.806;9.140;2023-06-22T15:43:43;35.20;1.00
4637;DHT22;2331;48.806;9.140;2023-06-22T15:46:09;35.10;1.00
4637;DHT22;2331;48.806;9.140;2023-06-22T15:48:36;35.00;1.00
4637;DHT22;2331;48.806;9.140;2023-06-22T15:51:04;34.90;1.00
4637;DHT22;2331;48.806;9.140;2023-06-22T15:53:31;34.90;1.00
4637;DHT22;2331;48.806;9.140;2023-06-22T15:55:57;34.50;1.00
4637;DHT22;2331;48.806;9.140;2023-06-22T15:58:24;34.60;1.00
4637;DHT22;2331;48.806;9.140;2023-06-22T16:00:51;34.60;1.00
4637;DHT22;2331;48.806;9.140;2023-06-22T16:03:17;34.70;1.00
4637;DHT22;2331;48.806;9.140;2023-06-22T16:05:44;34.70;1.00
4637;DHT22;2331;48.806;9.140;2023-06-22T16:08:12;34.60;1.00
4637;DHT22;2331;48.806;9.140;2023-06-22T16:10:39;34.50;1.00
4637;DHT22;2331;48.806;9.140;2023-06-22T16:13:05;34.40;1.00
4637;DHT22;2331;48.806;9.140;2023-06-22T16:15:32;34.40;1.00
4637;DHT22;2331;48.806;9.140;2023-06-22T16:17:59;34.30;1.00
4637;DHT22;2331;48.806;9.140;2023-06-22T16:20:25;34.30;1.00